sensor_id;sensor_type;location;lat;lon;timestamp;P1;durP1;ratioP1;P2;durP2;ratioP2
8419;SDS011;4247;48.550;8.822;2023-03-01T00:00:43;13.07;;;7.50;;
8419;SDS011;4247;48.550;8.822;2023-03-01T00:03:11;14.57;;;7.23;;
8419;SDS011;4247;48.550;8.822;2023-03-01T00:05:43;13.60;;;7.90;;
8419;SDS011;4247;48.550;8.822;2023-03-01T00:08:10;12.47;;;7.57;;
8419;SDS011;4247;48.550;8.822;2023-03-01T00:10:38;21.53;;;7.83;;
8419;SDS011;4247;48.550;8.822;2023-03-01T00:13:05;10.13;;;6.80;;
8419;SDS011;4247;48.550;8.822;2023-03-01T00:15:32;12.77;;;7.93;;
8419;SDS011;4247;48.550;8.822;2023-03-01T00:17:59;23.23;;;8.23;;
8419;SDS011;4247;48.550;8.822;2023-03-01T00:20:26;15.67;;;8.10;;
8419;SDS011;4247;48.550;8.822;2023-03-01T00:22:53;10.53;;;8.27;;
8419;SDS011;4247;48.550;8.822;2023-03-01T00:25:19;9.37;;;7.00;;
8419;SDS011;4247;48.550;8.822;2023-03-01T00:27:47;13.47;;;7.77;;
8419;SDS011;4247;48.550;8.822;2023-03-01T00:30:14;13.70;;;7.07;;
8419;SDS011;4247;48.550;8.822;2023-03-01T00:32:41;12.40;;;7.17;;
8419;SDS011;4247;48.550;8.822;2023-03-01T00:35:08;14.57;;;8.23;;
8419;SDS011;4247;48.550;8.822;2023-03-01T00:37:35;12.37;;;7.37;;
8419;SDS011;4247;48.550;8.822;2023-03-01T00:40:01;17.43;;;7.77;;
8419;SDS011;4247;48.550;8.822;2023-03-01T00:42:31;14.13;;;8.50;;
8419;SDS011;4247;48.550;8.822;2023-03-01T00:44:59;14.27;;;7.37;;
8419;SDS011;4247;48.550;8.822;2023-03-01T00:47:28;10.13;;;7.40;;
8419;SDS011;4247;48.550;8.822;2023-03-01T00:49:54;18.97;;;7.77;;
8419;SDS011;4247;48.550;8.822;2023-03-01T00:52:21;15.23;;;7.60;;
8419;SDS011;4247;48.550;8.822;2023-03-01T00:54:48;16.73;;;7.57;;
8419;SDS011;4247;48.550;8.822;2023-03-01T00:57:19;14.47;;;7.53;;
8419;SDS011;4247;48.550;8.822;2023-03-01T00:59:46;14.67;;;8.40;;
8419;SDS011;4247;48.550;8.822;2023-03-01T01:02:14;11.60;;;6.60;;
8419;SDS011;4247;48.550;8.822;2023-03-01T01:04:41;10.20;;;6.07;;
8419;SDS011;4247;48.550;8.822;2023-03-01T01:07:07;11.97;;;7.07;;
8419;SDS011;4247;48.550;8.822;2023-03-01T01:09:34;10.53;;;7.47;;
8419;SDS011;4247;48.550;8.822;2023-03-01T01:12:01;14.17;;;7.83;;
8419;SDS011;4247;48.550;8.822;2023-03-01T01:14:29;13.87;;;7.33;;
8419;SDS011;4247;48.550;8.822;2023-03-01T01:16:56;12.07;;;7.20;;
8419;SDS011;4247;48.550;8.822;2023-03-01T01:19:24;11.33;;;7.27;;
8419;SDS011;4247;48.550;8.822;2023-03-01T01:21:51;25.73;;;9.37;;
8419;SDS011;4247;48.550;8.822;2023-03-01T01:24:18;11.80;;;6.83;;
8419;SDS011;4247;48.550;8.822;2023-03-01T01:26:45;13.40;;;7.87;;
8419;SDS011;4247;48.550;8.822;2023-03-01T01:29:12;11.17;;;8.00;;
8419;SDS011;4247;48.550;8.822;2023-03-01T01:31:40;12.53;;;7.53;;
8419;SDS011;4247;48.550;8.822;2023-03-01T01:34:11;21.33;;;8.90;;
8419;SDS011;4247;48.550;8.822;2023-03-01T01:36:41;12.07;;;7.67;;
8419;SDS011;4247;48.550;8.822;2023-03-01T01:39:08;11.17;;;7.27;;
8419;SDS011;4247;48.550;8.822;2023-03-01T01:41:38;10.93;;;7.30;;
8419;SDS011;4247;48.550;8.822;2023-03-01T01:44:11;12.80;;;6.67;;
8419;SDS011;4247;48.550;8.822;2023-03-01T01:46:41;12.30;;;7.07;;
8419;SDS011;4247;48.550;8.822;2023-03-01T01:49:12;12.00;;;7.87;;
8419;SDS011;4247;48.550;8.822;2023-03-01T01:51:47;14.77;;;6.67;;
8419;SDS011;4247;48.550;8.822;2023-03-01T01:54:19;8.90;;;6.50;;
8419;SDS011;4247;48.550;8.822;2023-03-01T01:56:51;12.13;;;6.43;;
8419;SDS011;4247;48.550;8.822;2023-03-01T01:59:21;11.30;;;7.30;;
8419;SDS011;4247;48.550;8.822;2023-03-01T02:01:50;16.90;;;6.77;;
8419;SDS011;4247;48.550;8.822;2023-03-01T02:04:17;14.23;;;7.40;;
8419;SDS011;4247;48.550;8.822;2023-03-01T02:06:44;13.30;;;7.53;;
8419;SDS011;4247;48.550;8.822;2023-03-01T02:09:19;11.90;;;7.60;;
8419;SDS011;4247;48.550;8.822;2023-03-01T02:11:47;15.47;;;7.70;;
8419;SDS011;4247;48.550;8.822;2023-03-01T02:14:16;13.37;;;8.23;;
8419;SDS011;4247;48.550;8.822;2023-03-01T02:16:43;12.77;;;8.40;;
8419;SDS011;4247;48.550;8.822;2023-03-01T02:19:11;13.57;;;7.60;;
8419;SDS011;4247;48.550;8.822;2023-03-01T02:21:46;15.53;;;7.43;;
8419;SDS011;4247;48.550;8.822;2023-03-01T02:24:23;10.87;;;7.77;;
8419;SDS011;4247;48.550;8.822;2023-03-01T02:26:59;10.50;;;6.33;;
8419;SDS011;4247;48.550;8.822;2023-03-01T02:29:28;17.73;;;7.80;;
8419;SDS011;4247;48.550;8.822;2023-03-01T02:31:55;9.93;;;7.63;;
8419;SDS011;4247;48.550;8.822;2023-03-01T02:34:24;14.73;;;7.90;;
8419;SDS011;4247;48.550;8.822;2023-03-01T02:36:53;14.63;;;9.50;;
8419;SDS011;4247;48.550;8.822;2023-03-01T02:39:24;15.47;;;8.53;;
8419;SDS011;4247;48.550;8.822;2023-03-01T02:41:54;13.60;;;6.73;;
8419;SDS011;4247;48.550;8.822;2023-03-01T02:44:22;12.50;;;8.23;;
8419;SDS011;4247;48.550;8.822;2023-03-01T02:46:51;13.13;;;8.37;;
8419;SDS011;4247;48.550;8.822;2023-03-01T02:49:22;14.03;;;8.43;;
8419;SDS011;4247;48.550;8.822;2023-03-01T02:54:44;11.13;;;7.67;;
8419;SDS011;4247;48.550;8.822;2023-03-01T02:57:14;15.60;;;8.67;;
8419;SDS011;4247;48.550;8.822;2023-03-01T02:59:41;13.77;;;8.13;;
8419;SDS011;4247;48.550;8.822;2023-03-01T03:02:19;13.23;;;8.90;;
8419;SDS011;4247;48.550;8.822;2023-03-01T03:05:00;11.37;;;8.07;;
8419;SDS011;4247;48.550;8.822;2023-03-01T03:07:31;12.03;;;7.13;;
8419;SDS011;4247;48.550;8.822;2023-03-01T03:09:58;15.07;;;8.07;;
8419;SDS011;4247;48.550;8.822;2023-03-01T03:12:24;25.63;;;10.20;;
8419;SDS011;4247;48.550;8.822;2023-03-01T03:14:51;16.30;;;9.43;;
8419;SDS011;4247;48.550;8.822;2023-03-01T03:17:19;15.87;;;8.57;;
8419;SDS011;4247;48.550;8.822;2023-03-01T03:19:46;14.67;;;8.00;;
8419;SDS011;4247;48.550;8.822;2023-03-01T03:22:12;13.50;;;8.63;;
8419;SDS011;4247;48.550;8.822;2023-03-01T03:24:39;14.83;;;9.10;;
8419;SDS011;4247;48.550;8.822;2023-03-01T03:27:06;18.47;;;9.40;;
8419;SDS011;4247;48.550;8.822;2023-03-01T03:29:33;19.87;;;8.73;;
8419;SDS011;4247;48.550;8.822;2023-03-01T03:32:00;11.90;;;8.57;;
8419;SDS011;4247;48.550;8.822;2023-03-01T03:34:29;14.47;;;8.33;;
8419;SDS011;4247;48.550;8.822;2023-03-01T03:36:56;17.03;;;9.03;;
8419;SDS011;4247;48.550;8.822;2023-03-01T03:39:24;16.33;;;9.10;;
8419;SDS011;4247;48.550;8.822;2023-03-01T03:41:51;13.03;;;8.90;;
8419;SDS011;4247;48.550;8.822;2023-03-01T03:44:18;15.97;;;8.57;;
8419;SDS011;4247;48.550;8.822;2023-03-01T03:46:46;17.17;;;9.20;;
8419;SDS011;4247;48.550;8.822;2023-03-01T03:49:13;15.17;;;8.50;;
8419;SDS011;4247;48.550;8.822;2023-03-01T03:51:41;15.77;;;8.97;;
8419;SDS011;4247;48.550;8.822;2023-03-01T03:54:07;14.80;;;8.10;;
8419;SDS011;4247;48.550;8.822;2023-03-01T03:56:35;13.27;;;8.40;;
8419;SDS011;4247;48.550;8.822;2023-03-01T03:59:02;16.23;;;9.70;;
8419;SDS011;4247;48.550;8.822;2023-03-01T04:01:28;16.03;;;8.67;;
8419;SDS011;4247;48.550;8.822;2023-03-01T04:03:55;16.43;;;8.30;;
8419;SDS011;4247;48.550;8.822;2023-03-01T04:06:28;14.83;;;8.97;;
8419;SDS011;4247;48.550;8.822;2023-03-01T04:08:57;11.90;;;7.90;;
8419;SDS011;4247;48.550;8.822;2023-03-01T04:11:25;11.60;;;7.53;;
8419;SDS011;4247;48.550;8.822;2023-03-01T04:13:52;13.47;;;8.37;;
8419;SDS011;4247;48.550;8.822;2023-03-01T04:16:20;15.13;;;9.37;;
8419;SDS011;4247;48.550;8.822;2023-03-01T04:18:47;12.83;;;8.83;;
8419;SDS011;4247;48.550;8.822;2023-03-01T04:21:14;13.53;;;8.93;;
8419;SDS011;4247;48.550;8.822;2023-03-01T04:23:41;18.63;;;9.17;;
8419;SDS011;4247;48.550;8.822;2023-03-01T04:26:09;16.63;;;8.97;;
8419;SDS011;4247;48.550;8.822;2023-03-01T04:28:36;14.67;;;8.33;;
8419;SDS011;4247;48.550;8.822;2023-03-01T04:31:08;18.77;;;9.43;;
8419;SDS011;4247;48.550;8.822;2023-03-01T04:33:41;15.90;;;8.87;;
8419;SDS011;4247;48.550;8.822;2023-03-01T04:36:10;17.97;;;8.87;;
8419;SDS011;4247;48.550;8.822;2023-03-01T04:38:37;16.13;;;8.57;;
8419;SDS011;4247;48.550;8.822;2023-03-01T04:41:05;12.40;;;9.03;;
8419;SDS011;4247;48.550;8.822;2023-03-01T04:43:34;14.00;;;8.77;;
8419;SDS011;4247;48.550;8.822;2023-03-01T04:46:01;14.13;;;9.37;;
8419;SDS011;4247;48.550;8.822;2023-03-01T04:48:29;14.50;;;8.77;;
8419;SDS011;4247;48.550;8.822;2023-03-01T04:50:56;17.77;;;8.80;;
8419;SDS011;4247;48.550;8.822;2023-03-01T04:53:24;16.77;;;9.30;;
8419;SDS011;4247;48.550;8.822;2023-03-01T04:55:50;16.13;;;10.03;;
8419;SDS011;4247;48.550;8.822;2023-03-01T04:58:17;19.47;;;10.00;;
8419;SDS011;4247;48.550;8.822;2023-03-01T05:00:45;19.97;;;9.53;;
8419;SDS011;4247;48.550;8.822;2023-03-01T05:03:12;15.10;;;9.17;;
8419;SDS011;4247;48.550;8.822;2023-03-01T05:05:43;18.10;;;9.33;;
8419;SDS011;4247;48.550;8.822;2023-03-01T05:08:11;16.00;;;8.70;;
8419;SDS011;4247;48.550;8.822;2023-03-01T05:10:42;17.30;;;10.20;;
8419;SDS011;4247;48.550;8.822;2023-03-01T05:13:11;11.97;;;8.57;;
8419;SDS011;4247;48.550;8.822;2023-03-01T05:15:40;15.77;;;9.13;;
8419;SDS011;4247;48.550;8.822;2023-03-01T05:18:08;12.97;;;7.73;;
8419;SDS011;4247;48.550;8.822;2023-03-01T05:20:36;19.80;;;10.07;;
8419;SDS011;4247;48.550;8.822;2023-03-01T05:23:04;18.77;;;11.23;;
8419;SDS011;4247;48.550;8.822;2023-03-01T05:25:32;17.77;;;10.10;;
8419;SDS011;4247;48.550;8.822;2023-03-01T05:28:00;16.97;;;9.63;;
8419;SDS011;4247;48.550;8.822;2023-03-01T05:30:29;19.73;;;10.53;;
8419;SDS011;4247;48.550;8.822;2023-03-01T05:32:57;19.30;;;9.83;;
8419;SDS011;4247;48.550;8.822;2023-03-01T05:35:25;16.23;;;10.20;;
8419;SDS011;4247;48.550;8.822;2023-03-01T05:37:52;13.93;;;9.47;;
8419;SDS011;4247;48.550;8.822;2023-03-01T05:40:20;17.60;;;9.40;;
8419;SDS011;4247;48.550;8.822;2023-03-01T05:42:49;17.97;;;10.37;;
8419;SDS011;4247;48.550;8.822;2023-03-01T05:45:18;19.23;;;10.63;;
8419;SDS011;4247;48.550;8.822;2023-03-01T05:47:45;18.90;;;10.93;;
8419;SDS011;4247;48.550;8.822;2023-03-01T05:50:14;14.47;;;9.83;;
8419;SDS011;4247;48.550;8.822;2023-03-01T05:52:45;20.90;;;9.20;;
8419;SDS011;4247;48.550;8.822;2023-03-01T05:55:13;16.63;;;11.00;;
8419;SDS011;4247;48.550;8.822;2023-03-01T05:57:40;13.37;;;9.43;;
8419;SDS011;4247;48.550;8.822;2023-03-01T06:00:08;20.80;;;10.43;;
8419;SDS011;4247;48.550;8.822;2023-03-01T06:02:35;16.13;;;9.37;;
8419;SDS011;4247;48.550;8.822;2023-03-01T06:05:03;18.57;;;10.23;;
8419;SDS011;4247;48.550;8.822;2023-03-01T06:07:30;21.23;;;10.57;;
8419;SDS011;4247;48.550;8.822;2023-03-01T06:09:58;18.10;;;10.93;;
8419;SDS011;4247;48.550;8.822;2023-03-01T06:12:25;19.83;;;10.03;;
8419;SDS011;4247;48.550;8.822;2023-03-01T06:14:52;19.23;;;10.70;;
8419;SDS011;4247;48.550;8.822;2023-03-01T06:17:18;16.33;;;9.63;;
8419;SDS011;4247;48.550;8.822;2023-03-01T06:19:46;15.57;;;10.53;;
8419;SDS011;4247;48.550;8.822;2023-03-01T06:22:12;18.23;;;10.17;;
8419;SDS011;4247;48.550;8.822;2023-03-01T06:24:39;16.17;;;9.17;;
8419;SDS011;4247;48.550;8.822;2023-03-01T06:27:07;16.07;;;8.67;;
8419;SDS011;4247;48.550;8.822;2023-03-01T06:29:34;20.47;;;9.83;;
8419;SDS011;4247;48.550;8.822;2023-03-01T06:32:00;16.00;;;8.97;;
8419;SDS011;4247;48.550;8.822;2023-03-01T06:34:28;17.03;;;9.97;;
8419;SDS011;4247;48.550;8.822;2023-03-01T06:36:55;17.03;;;8.90;;
8419;SDS011;4247;48.550;8.822;2023-03-01T06:39:21;22.77;;;9.90;;
8419;SDS011;4247;48.550;8.822;2023-03-01T06:41:48;16.50;;;9.47;;
8419;SDS011;4247;48.550;8.822;2023-03-01T06:44:16;19.70;;;9.60;;
8419;SDS011;4247;48.550;8.822;2023-03-01T06:46:43;15.30;;;9.57;;
8419;SDS011;4247;48.550;8.822;2023-03-01T06:49:09;13.83;;;9.33;;
8419;SDS011;4247;48.550;8.822;2023-03-01T06:51:36;14.23;;;9.67;;
8419;SDS011;4247;48.550;8.822;2023-03-01T06:54:03;18.13;;;9.17;;
8419;SDS011;4247;48.550;8.822;2023-03-01T06:56:30;17.80;;;10.27;;
8419;SDS011;4247;48.550;8.822;2023-03-01T06:58:57;15.70;;;10.30;;
8419;SDS011;4247;48.550;8.822;2023-03-01T07:01:25;13.23;;;8.77;;
8419;SDS011;4247;48.550;8.822;2023-03-01T07:03:51;17.03;;;10.43;;
8419;SDS011;4247;48.550;8.822;2023-03-01T07:06:18;16.97;;;11.17;;
8419;SDS011;4247;48.550;8.822;2023-03-01T07:08:45;18.67;;;11.00;;
8419;SDS011;4247;48.550;8.822;2023-03-01T07:11:12;17.00;;;10.23;;
8419;SDS011;4247;48.550;8.822;2023-03-01T07:13:39;18.67;;;10.27;;
8419;SDS011;4247;48.550;8.822;2023-03-01T07:16:06;19.70;;;10.43;;
8419;SDS011;4247;48.550;8.822;2023-03-01T07:18:34;16.70;;;10.90;;
8419;SDS011;4247;48.550;8.822;2023-03-01T07:21:03;20.33;;;10.37;;
8419;SDS011;4247;48.550;8.822;2023-03-01T07:23:31;17.70;;;10.73;;
8419;SDS011;4247;48.550;8.822;2023-03-01T07:25:59;13.37;;;9.73;;
8419;SDS011;4247;48.550;8.822;2023-03-01T07:28:26;22.87;;;12.30;;
8419;SDS011;4247;48.550;8.822;2023-03-01T07:30:53;16.80;;;9.70;;
8419;SDS011;4247;48.550;8.822;2023-03-01T07:33:20;20.63;;;11.70;;
8419;SDS011;4247;48.550;8.822;2023-03-01T07:35:48;14.70;;;10.57;;
8419;SDS011;4247;48.550;8.822;2023-03-01T07:38:22;23.30;;;11.50;;
8419;SDS011;4247;48.550;8.822;2023-03-01T07:40:49;19.27;;;11.60;;
8419;SDS011;4247;48.550;8.822;2023-03-01T07:43:16;18.17;;;10.50;;
8419;SDS011;4247;48.550;8.822;2023-03-01T07:45:42;18.90;;;11.27;;
8419;SDS011;4247;48.550;8.822;2023-03-01T07:48:09;23.13;;;12.63;;
8419;SDS011;4247;48.550;8.822;2023-03-01T07:50:36;26.77;;;10.70;;
8419;SDS011;4247;48.550;8.822;2023-03-01T07:53:04;23.40;;;10.50;;
8419;SDS011;4247;48.550;8.822;2023-03-01T07:55:31;20.53;;;11.43;;
8419;SDS011;4247;48.550;8.822;2023-03-01T07:57:57;16.43;;;10.87;;
8419;SDS011;4247;48.550;8.822;2023-03-01T08:00:24;19.03;;;12.07;;
8419;SDS011;4247;48.550;8.822;2023-03-01T08:02:51;19.67;;;10.90;;
8419;SDS011;4247;48.550;8.822;2023-03-01T08:05:17;27.87;;;11.63;;
8419;SDS011;4247;48.550;8.822;2023-03-01T08:07:44;36.73;;;13.23;;
8419;SDS011;4247;48.550;8.822;2023-03-01T08:10:12;17.80;;;10.87;;
8419;SDS011;4247;48.550;8.822;2023-03-01T08:12:39;23.23;;;11.97;;
8419;SDS011;4247;48.550;8.822;2023-03-01T08:15:06;22.80;;;11.97;;
8419;SDS011;4247;48.550;8.822;2023-03-01T08:17:33;27.43;;;12.27;;
8419;SDS011;4247;48.550;8.822;2023-03-01T08:20:00;17.83;;;11.33;;
8419;SDS011;4247;48.550;8.822;2023-03-01T08:22:28;21.77;;;12.33;;
8419;SDS011;4247;48.550;8.822;2023-03-01T08:24:55;23.13;;;10.10;;
8419;SDS011;4247;48.550;8.822;2023-03-01T08:27:23;19.77;;;11.37;;
8419;SDS011;4247;48.550;8.822;2023-03-01T08:29:49;18.63;;;12.00;;
8419;SDS011;4247;48.550;8.822;2023-03-01T08:32:16;25.80;;;12.87;;
8419;SDS011;4247;48.550;8.822;2023-03-01T08:34:45;19.07;;;12.23;;
8419;SDS011;4247;48.550;8.822;2023-03-01T08:37:12;19.67;;;10.77;;
8419;SDS011;4247;48.550;8.822;2023-03-01T08:39:39;19.23;;;11.40;;
8419;SDS011;4247;48.550;8.822;2023-03-01T08:42:13;19.43;;;11.50;;
8419;SDS011;4247;48.550;8.822;2023-03-01T08:44:40;19.67;;;11.70;;
8419;SDS011;4247;48.550;8.822;2023-03-01T08:47:07;20.43;;;10.60;;
8419;SDS011;4247;48.550;8.822;2023-03-01T08:49:33;19.30;;;11.30;;
8419;SDS011;4247;48.550;8.822;2023-03-01T08:52:01;18.53;;;10.77;;
8419;SDS011;4247;48.550;8.822;2023-03-01T08:54:28;21.90;;;11.23;;
8419;SDS011;4247;48.550;8.822;2023-03-01T08:56:55;20.83;;;13.23;;
8419;SDS011;4247;48.550;8.822;2023-03-01T08:59:25;22.50;;;11.83;;
8419;SDS011;4247;48.550;8.822;2023-03-01T09:01:53;16.23;;;10.67;;
8419;SDS011;4247;48.550;8.822;2023-03-01T09:04:20;19.67;;;11.00;;
8419;SDS011;4247;48.550;8.822;2023-03-01T09:06:46;16.33;;;10.03;;
8419;SDS011;4247;48.550;8.822;2023-03-01T09:09:14;16.93;;;9.90;;
8419;SDS011;4247;48.550;8.822;2023-03-01T09:11:42;19.93;;;11.57;;
8419;SDS011;4247;48.550;8.822;2023-03-01T09:14:11;16.97;;;10.43;;
8419;SDS011;4247;48.550;8.822;2023-03-01T09:16:39;18.53;;;11.33;;
8419;SDS011;4247;48.550;8.822;2023-03-01T09:19:06;16.97;;;10.03;;
8419;SDS011;4247;48.550;8.822;2023-03-01T09:21:32;18.53;;;10.90;;
8419;SDS011;4247;48.550;8.822;2023-03-01T09:23:59;18.63;;;11.33;;
8419;SDS011;4247;48.550;8.822;2023-03-01T09:26:25;18.83;;;10.83;;
8419;SDS011;4247;48.550;8.822;2023-03-01T09:28:53;18.13;;;10.50;;
8419;SDS011;4247;48.550;8.822;2023-03-01T09:31:22;16.70;;;10.57;;
8419;SDS011;4247;48.550;8.822;2023-03-01T09:33:51;17.70;;;9.47;;
8419;SDS011;4247;48.550;8.822;2023-03-01T09:36:20;19.07;;;10.50;;
8419;SDS011;4247;48.550;8.822;2023-03-01T09:38:48;20.37;;;10.87;;
8419;SDS011;4247;48.550;8.822;2023-03-01T09:41:31;18.00;;;11.00;;
8419;SDS011;4247;48.550;8.822;2023-03-01T09:44:10;22.87;;;11.20;;
8419;SDS011;4247;48.550;8.822;2023-03-01T09:46:44;17.87;;;9.87;;
8419;SDS011;4247;48.550;8.822;2023-03-01T09:49:14;19.47;;;10.43;;
8419;SDS011;4247;48.550;8.822;2023-03-01T09:51:46;15.83;;;10.87;;
8419;SDS011;4247;48.550;8.822;2023-03-01T09:54:19;17.27;;;11.10;;
8419;SDS011;4247;48.550;8.822;2023-03-01T09:56:47;18.50;;;10.80;;
8419;SDS011;4247;48.550;8.822;2023-03-01T09:59:37;20.00;;;10.77;;
8419;SDS011;4247;48.550;8.822;2023-03-01T10:02:21;18.27;;;10.27;;
8419;SDS011;4247;48.550;8.822;2023-03-01T10:04:56;20.87;;;10.10;;
8419;SDS011;4247;48.550;8.822;2023-03-01T10:07:37;23.87;;;12.20;;
8419;SDS011;4247;48.550;8.822;2023-03-01T10:10:12;18.37;;;10.13;;
8419;SDS011;4247;48.550;8.822;2023-03-01T10:12:47;20.90;;;10.93;;
8419;SDS011;4247;48.550;8.822;2023-03-01T10:15:15;22.33;;;11.37;;
8419;SDS011;4247;48.550;8.822;2023-03-01T10:17:46;17.03;;;10.40;;
8419;SDS011;4247;48.550;8.822;2023-03-01T10:20:21;19.83;;;11.10;;
8419;SDS011;4247;48.550;8.822;2023-03-01T10:22:50;19.07;;;10.77;;
8419;SDS011;4247;48.550;8.822;2023-03-01T10:25:20;21.77;;;10.97;;
8419;SDS011;4247;48.550;8.822;2023-03-01T10:27:56;20.73;;;11.67;;
8419;SDS011;4247;48.550;8.822;2023-03-01T10:30:29;19.27;;;10.80;;
8419;SDS011;4247;48.550;8.822;2023-03-01T10:33:03;14.83;;;9.13;;
8419;SDS011;4247;48.550;8.822;2023-03-01T10:35:38;17.30;;;10.53;;
8419;SDS011;4247;48.550;8.822;2023-03-01T10:38:07;21.67;;;10.10;;
8419;SDS011;4247;48.550;8.822;2023-03-01T10:40:35;21.80;;;9.70;;
8419;SDS011;4247;48.550;8.822;2023-03-01T10:43:15;19.70;;;9.93;;
8419;SDS011;4247;48.550;8.822;2023-03-01T10:45:42;18.10;;;11.40;;
8419;SDS011;4247;48.550;8.822;2023-03-01T10:48:11;15.80;;;9.70;;
8419;SDS011;4247;48.550;8.822;2023-03-01T10:50:41;17.17;;;10.27;;
8419;SDS011;4247;48.550;8.822;2023-03-01T10:53:22;20.23;;;11.07;;
8419;SDS011;4247;48.550;8.822;2023-03-01T10:55:58;18.13;;;11.13;;
8419;SDS011;4247;48.550;8.822;2023-03-01T10:58:28;20.27;;;10.13;;
8419;SDS011;4247;48.550;8.822;2023-03-01T11:00:57;15.63;;;9.90;;
8419;SDS011;4247;48.550;8.822;2023-03-01T11:03:26;18.87;;;11.27;;
8419;SDS011;4247;48.550;8.822;2023-03-01T11:05:57;20.40;;;10.50;;
8419;SDS011;4247;48.550;8.822;2023-03-01T11:11:13;20.73;;;11.33;;
8419;SDS011;4247;48.550;8.822;2023-03-01T11:13:51;15.13;;;10.13;;
8419;SDS011;4247;48.550;8.822;2023-03-01T11:16:27;16.90;;;10.30;;
8419;SDS011;4247;48.550;8.822;2023-03-01T11:18:57;17.23;;;9.80;;
8419;SDS011;4247;48.550;8.822;2023-03-01T11:21:28;15.30;;;10.13;;
8419;SDS011;4247;48.550;8.822;2023-03-01T11:23:57;22.60;;;10.40;;
8419;SDS011;4247;48.550;8.822;2023-03-01T11:26:27;20.50;;;10.53;;
8419;SDS011;4247;48.550;8.822;2023-03-01T11:28:58;18.20;;;10.60;;
8419;SDS011;4247;48.550;8.822;2023-03-01T11:31:30;18.20;;;10.43;;
8419;SDS011;4247;48.550;8.822;2023-03-01T11:33:59;14.20;;;9.47;;
8419;SDS011;4247;48.550;8.822;2023-03-01T11:36:34;22.27;;;11.30;;
8419;SDS011;4247;48.550;8.822;2023-03-01T11:39:10;19.50;;;10.67;;
8419;SDS011;4247;48.550;8.822;2023-03-01T11:41:43;18.57;;;10.03;;
8419;SDS011;4247;48.550;8.822;2023-03-01T11:44:19;18.23;;;11.20;;
8419;SDS011;4247;48.550;8.822;2023-03-01T11:47:00;18.13;;;9.90;;
8419;SDS011;4247;48.550;8.822;2023-03-01T11:49:45;16.90;;;9.43;;
8419;SDS011;4247;48.550;8.822;2023-03-01T11:52:27;22.77;;;10.83;;
8419;SDS011;4247;48.550;8.822;2023-03-01T11:55:07;14.90;;;9.73;;
8419;SDS011;4247;48.550;8.822;2023-03-01T11:57:49;19.20;;;12.17;;
8419;SDS011;4247;48.550;8.822;2023-03-01T12:00:31;17.83;;;10.33;;
8419;SDS011;4247;48.550;8.822;2023-03-01T12:03:15;16.43;;;10.33;;
8419;SDS011;4247;48.550;8.822;2023-03-01T12:06:03;16.80;;;10.23;;
8419;SDS011;4247;48.550;8.822;2023-03-01T12:08:58;20.23;;;11.43;;
8419;SDS011;4247;48.550;8.822;2023-03-01T12:11:36;16.60;;;9.93;;
8419;SDS011;4247;48.550;8.822;2023-03-01T12:14:12;15.27;;;9.50;;
8419;SDS011;4247;48.550;8.822;2023-03-01T12:20:06;20.63;;;10.60;;
8419;SDS011;4247;48.550;8.822;2023-03-01T12:22:44;17.07;;;10.23;;
8419;SDS011;4247;48.550;8.822;2023-03-01T12:25:27;17.70;;;10.20;;
8419;SDS011;4247;48.550;8.822;2023-03-01T12:30:53;19.07;;;10.03;;
8419;SDS011;4247;48.550;8.822;2023-03-01T12:33:33;15.40;;;9.33;;
8419;SDS011;4247;48.550;8.822;2023-03-01T12:36:10;13.53;;;8.47;;
8419;SDS011;4247;48.550;8.822;2023-03-01T12:38:56;14.43;;;8.80;;
8419;SDS011;4247;48.550;8.822;2023-03-01T12:41:43;17.30;;;8.43;;
8419;SDS011;4247;48.550;8.822;2023-03-01T12:44:21;14.53;;;7.97;;
8419;SDS011;4247;48.550;8.822;2023-03-01T12:47:00;22.07;;;9.13;;
8419;SDS011;4247;48.550;8.822;2023-03-01T12:49:37;13.77;;;8.73;;
8419;SDS011;4247;48.550;8.822;2023-03-01T12:52:09;19.13;;;9.07;;
8419;SDS011;4247;48.550;8.822;2023-03-01T12:54:40;16.17;;;9.77;;
8419;SDS011;4247;48.550;8.822;2023-03-01T12:57:11;12.70;;;8.63;;
8419;SDS011;4247;48.550;8.822;2023-03-01T12:59:42;16.80;;;8.97;;
8419;SDS011;4247;48.550;8.822;2023-03-01T13:02:19;16.33;;;9.37;;
8419;SDS011;4247;48.550;8.822;2023-03-01T13:05:01;13.40;;;8.80;;
8419;SDS011;4247;48.550;8.822;2023-03-01T13:07:44;16.93;;;9.87;;
8419;SDS011;4247;48.550;8.822;2023-03-01T13:10:21;18.10;;;9.57;;
8419;SDS011;4247;48.550;8.822;2023-03-01T13:13:09;15.30;;;9.27;;
8419;SDS011;4247;48.550;8.822;2023-03-01T13:15:39;13.77;;;9.73;;
8419;SDS011;4247;48.550;8.822;2023-03-01T13:20:55;16.80;;;9.00;;
8419;SDS011;4247;48.550;8.822;2023-03-01T13:23:24;17.87;;;9.97;;
8419;SDS011;4247;48.550;8.822;2023-03-01T13:26:00;16.67;;;11.10;;
8419;SDS011;4247;48.550;8.822;2023-03-01T13:34:46;16.67;;;8.93;;
8419;SDS011;4247;48.550;8.822;2023-03-01T13:43:27;13.07;;;8.33;;
8419;SDS011;4247;48.550;8.822;2023-03-01T13:46:00;15.27;;;9.97;;
8419;SDS011;4247;48.550;8.822;2023-03-01T13:48:33;19.00;;;9.03;;
8419;SDS011;4247;48.550;8.822;2023-03-01T13:51:00;18.73;;;9.40;;
8419;SDS011;4247;48.550;8.822;2023-03-01T13:53:29;16.83;;;10.20;;
8419;SDS011;4247;48.550;8.822;2023-03-01T13:56:00;16.10;;;9.70;;
8419;SDS011;4247;48.550;8.822;2023-03-01T13:58:29;15.03;;;9.57;;
8419;SDS011;4247;48.550;8.822;2023-03-01T14:00:58;19.33;;;10.60;;
8419;SDS011;4247;48.550;8.822;2023-03-01T14:03:28;13.30;;;8.97;;
8419;SDS011;4247;48.550;8.822;2023-03-01T14:05:58;12.67;;;9.73;;
8419;SDS011;4247;48.550;8.822;2023-03-01T14:08:29;15.53;;;9.63;;
8419;SDS011;4247;48.550;8.822;2023-03-01T14:11:07;17.37;;;9.27;;
8419;SDS011;4247;48.550;8.822;2023-03-01T14:14:01;19.17;;;9.13;;
8419;SDS011;4247;48.550;8.822;2023-03-01T14:16:44;18.37;;;9.90;;
8419;SDS011;4247;48.550;8.822;2023-03-01T14:19:19;13.77;;;8.07;;
8419;SDS011;4247;48.550;8.822;2023-03-01T14:21:49;11.80;;;7.37;;
8419;SDS011;4247;48.550;8.822;2023-03-01T14:24:28;12.60;;;8.40;;
8419;SDS011;4247;48.550;8.822;2023-03-01T14:26:57;14.10;;;8.17;;
8419;SDS011;4247;48.550;8.822;2023-03-01T14:29:27;16.40;;;8.50;;
8419;SDS011;4247;48.550;8.822;2023-03-01T14:32:09;14.93;;;8.10;;
8419;SDS011;4247;48.550;8.822;2023-03-01T14:34:38;15.27;;;8.53;;
8419;SDS011;4247;48.550;8.822;2023-03-01T14:37:10;14.63;;;8.83;;
8419;SDS011;4247;48.550;8.822;2023-03-01T14:39:37;18.53;;;8.57;;
8419;SDS011;4247;48.550;8.822;2023-03-01T14:42:04;13.07;;;9.13;;
8419;SDS011;4247;48.550;8.822;2023-03-01T14:44:31;11.20;;;7.33;;
8419;SDS011;4247;48.550;8.822;2023-03-01T14:47:02;17.43;;;8.07;;
8419;SDS011;4247;48.550;8.822;2023-03-01T14:49:31;16.07;;;8.30;;
8419;SDS011;4247;48.550;8.822;2023-03-01T14:51:59;15.87;;;8.77;;
8419;SDS011;4247;48.550;8.822;2023-03-01T14:54:29;15.80;;;8.90;;
8419;SDS011;4247;48.550;8.822;2023-03-01T14:57:02;12.87;;;8.77;;
8419;SDS011;4247;48.550;8.822;2023-03-01T14:59:29;14.73;;;8.10;;
8419;SDS011;4247;48.550;8.822;2023-03-01T15:01:59;15.03;;;8.40;;
8419;SDS011;4247;48.550;8.822;2023-03-01T15:04:26;12.07;;;7.57;;
8419;SDS011;4247;48.550;8.822;2023-03-01T15:06:55;17.70;;;9.43;;
8419;SDS011;4247;48.550;8.822;2023-03-01T15:09:29;15.70;;;8.90;;
8419;SDS011;4247;48.550;8.822;2023-03-01T15:12:00;13.57;;;8.37;;
8419;SDS011;4247;48.550;8.822;2023-03-01T15:14:27;14.83;;;8.33;;
8419;SDS011;4247;48.550;8.822;2023-03-01T15:17:04;11.70;;;8.47;;
8419;SDS011;4247;48.550;8.822;2023-03-01T15:19:31;13.07;;;8.07;;
8419;SDS011;4247;48.550;8.822;2023-03-01T15:21:59;14.57;;;7.87;;
8419;SDS011;4247;48.550;8.822;2023-03-01T15:24:37;17.80;;;8.40;;
8419;SDS011;4247;48.550;8.822;2023-03-01T15:27:03;14.60;;;10.23;;
8419;SDS011;4247;48.550;8.822;2023-03-01T15:29:31;22.10;;;10.30;;
8419;SDS011;4247;48.550;8.822;2023-03-01T15:32:06;14.00;;;9.40;;
8419;SDS011;4247;48.550;8.822;2023-03-01T15:34:51;21.53;;;9.57;;
8419;SDS011;4247;48.550;8.822;2023-03-01T15:40:17;16.37;;;9.37;;
8419;SDS011;4247;48.550;8.822;2023-03-01T15:42:45;16.23;;;10.50;;